Time;durP1;ratioP1;P1;durP2;ratioP2;P2;SDS_P1;SDS_P2;PMS_P1;PMS_P2;Temp;Humidity;BMP_temperature;BMP_pressure;BME280_temperature;BME280_humidity;BME280_pressure;Samples;Min_cycle;Max_cycle;Signal;HPM_P1;HPM_P2
2021/08/04 00:02:12;;;;;;;7.58;4.75;;;;;;;17.90;69.67;100510.94;1704757;81;25841;-77
2021/08/04 00:04:39;;;;;;;7.22;5.22;;;;;;;17.60;69.83;100517.00;1690361;82;25922;-77
2021/08/04 00:07:06;;;;;;;6.35;4.47;;;;;;;17.39;69.94;100506.18;1758345;81;27568;-78
2021/08/04 00:09:34;;;;;;;8.60;4.97;;;;;;;17.38;70.30;100506.42;1688890;81;26688;-77
2021/08/04 00:12:01;;;;;;;9.80;4.33;;;;;;;17.29;70.46;100525.41;1700978;81;25801;-78
2021/08/04 00:14:28;;;;;;;7.90;3.87;;;;;;;17.14;70.61;100513.67;1721811;81;26397;-78
2021/08/04 00:16:55;;;;;;;7.12;4.30;;;;;;;17.03;70.87;100510.91;1738196;82;26153;-78
2021/08/04 00:19:22;;;;;;;4.83;4.15;;;;;;;16.94;71.04;100515.31;1701332;81;28237;-78
2021/08/04 00:21:49;;;;;;;6.55;4.05;;;;;;;16.91;71.24;100515.75;1722736;81;25807;-77
2021/08/04 00:24:16;;;;;;;6.90;3.95;;;;;;;16.87;71.52;100509.70;1693325;81;25865;-78
2021/08/04 00:26:43;;;;;;;4.40;3.80;;;;;;;16.87;71.61;100508.36;1713074;82;25832;-78
2021/08/04 00:29:11;;;;;;;6.72;3.87;;;;;;;16.90;71.57;100507.87;1728793;80;26038;-78
2021/08/04 00:31:38;;;;;;;6.55;3.62;;;;;;;16.92;71.65;100512.53;1722835;81;28118;-78
2021/08/04 00:34:05;;;;;;;5.75;3.65;;;;;;;16.95;71.75;100508.02;1735214;81;25737;-78
2021/08/04 00:36:32;;;;;;;8.65;4.40;;;;;;;17.00;71.93;100508.69;1693101;80;25895;-77
2021/08/04 00:38:59;;;;;;;5.60;3.92;;;;;;;17.05;72.02;100512.34;1720812;81;25767;-78
2021/08/04 00:41:26;;;;;;;6.30;4.15;;;;;;;17.08;72.21;100511.89;1703541;81;25856;-77
2021/08/04 00:43:53;;;;;;;9.40;4.03;;;;;;;17.09;72.14;100516.23;1738965;82;28257;-78
2021/08/04 00:46:20;;;;;;;8.10;4.10;;;;;;;17.13;72.03;100513.91;1694612;81;25906;-78
2021/08/04 00:48:49;;;;;;;5.90;3.62;;;;;;;17.15;72.23;100517.20;1677154;82;26355;-77
2021/08/04 00:51:16;;;;;;;5.10;3.95;;;;;;;17.16;72.15;100514.26;1720108;81;26646;-77
2021/08/04 00:53:43;;;;;;;7.80;4.30;;;;;;;17.17;72.07;100509.68;1761862;81;25829;-77
2021/08/04 00:56:10;;;;;;;7.08;4.20;;;;;;;17.19;72.21;100514.33;1694304;81;27393;-78
2021/08/04 00:58:41;;;;;;;6.95;3.90;;;;;;;17.20;72.25;100520.86;1718988;81;26539;-77
2021/08/04 01:01:17;;;;;;;6.00;4.12;;;;;;;17.22;72.33;100518.74;1714738;81;25877;-77
2021/08/04 01:03:47;;;;;;;7.72;4.00;;;;;;;17.25;72.46;100516.11;1758203;81;25924;-78
2021/08/04 01:06:25;;;;;;;7.45;4.33;;;;;;;17.24;72.67;100522.56;1703432;81;25928;-77
2021/08/04 01:08:56;;;;;;;7.80;4.10;;;;;;;17.23;72.61;100515.52;1752978;81;27457;-79
2021/08/04 01:11:41;;;;;;;5.70;4.42;;;;;;;17.23;72.62;100508.22;1743549;81;25851;-79
2021/08/04 01:14:15;;;;;;;7.05;4.65;;;;;;;17.23;72.61;100513.64;1716379;81;25734;-78
2021/08/04 01:16:45;;;;;;;6.80;3.70;;;;;;;17.24;72.80;100512.56;1712666;82;25810;-77
2021/08/04 01:19:53;;;;;;;5.87;3.70;;;;;;;17.20;72.63;100507.84;1716378;80;25813;-77
2021/08/04 01:22:51;;;;;;;8.73;3.75;;;;;;;17.10;72.63;100504.37;1714135;82;28283;-78
2021/08/04 01:25:20;;;;;;;10.13;3.67;;;;;;;17.06;72.79;100509.11;1712058;82;25427;-78
2021/08/04 01:28:36;;;;;;;4.50;3.77;;;;;;;17.05;73.01;100507.45;1697911;81;25373;-79
2021/08/04 01:31:10;;;;;;;6.67;3.98;;;;;;;17.00;73.06;100500.02;1717643;81;26575;-78
2021/08/04 01:33:41;;;;;;;5.85;4.33;;;;;;;17.01;73.29;100496.79;1761175;81;25867;-77
2021/08/04 01:36:09;;;;;;;;;;;;;;;17.02;73.34;100497.11;1706772;81;27142;-78
2021/08/04 01:38:39;;;;;;;6.62;3.65;;;;;;;17.00;73.67;100495.96;1672771;81;26015;-77
2021/08/04 01:41:08;;;;;;;6.05;4.05;;;;;;;16.95;73.58;100491.79;1719094;81;25947;-78
2021/08/04 01:43:38;;;;;;;4.78;3.98;;;;;;;16.90;73.57;100484.36;1721482;81;26617;-77
2021/08/04 01:46:07;;;;;;;4.67;3.60;;;;;;;16.87;73.76;100491.57;1713835;81;25884;-77
2021/08/04 01:48:38;;;;;;;4.67;3.77;;;;;;;16.81;73.76;100488.44;1710536;82;27620;-78
2021/08/04 01:51:08;;;;;;;6.25;3.83;;;;;;;16.79;73.89;100485.66;1751343;80;25963;-77
2021/08/04 01:53:36;;;;;;;8.30;3.62;;;;;;;16.76;73.94;100487.48;1757907;81;25924;-77
2021/08/04 01:56:04;;;;;;;6.65;3.75;;;;;;;16.71;74.04;100479.23;1690273;82;26781;-78
2021/08/04 01:58:32;;;;;;;6.20;3.52;;;;;;;16.70;74.03;100485.70;1670465;80;25867;-77
2021/08/04 02:00:59;;;;;;;6.20;3.42;;;;;;;16.69;74.04;100486.75;1747761;81;27619;-77
2021/08/04 02:03:27;;;;;;;4.67;3.55;;;;;;;16.71;74.10;100485.98;1757924;81;25809;-77
2021/08/04 02:05:54;;;;;;;3.90;3.47;;;;;;;16.72;74.22;100487.66;1691350;82;25986;-76
2021/08/04 02:08:42;;;;;;;6.65;3.33;;;;;;;16.72;74.42;100479.54;1722766;81;26483;-78
2021/08/04 02:11:20;;;;;;;6.83;3.33;;;;;;;16.67;74.35;100476.16;1756219;81;26476;-79
2021/08/04 02:14:05;;;;;;;6.70;4.00;;;;;;;16.61;74.62;100474.91;1736346;82;27536;-78
2021/08/04 02:16:49;;;;;;;12.55;4.45;;;;;;;16.61;74.64;100473.55;1738204;82;25328;-78
2021/08/04 02:19:34;;;;;;;6.12;3.55;;;;;;;16.59;74.80;100468.38;1702860;82;25900;-79
2021/08/04 02:22:20;;;;;;;6.00;4.03;;;;;;;16.56;74.87;100467.47;1754252;81;26585;-78
2021/08/04 02:24:53;;;;;;;4.67;3.50;;;;;;;16.53;75.16;100470.62;1736747;82;25284;-78
2021/08/04 02:27:20;;;;;;;4.12;3.72;;;;;;;16.49;75.24;100468.56;1728364;82;28209;-78
2021/08/04 02:29:49;;;;;;;9.65;4.17;;;;;;;16.45;75.39;100472.27;1694188;81;25828;-78
2021/08/04 02:32:16;;;;;;;6.25;3.90;;;;;;;16.42;75.45;100474.09;1737969;82;25324;-78
2021/08/04 02:34:43;;;;;;;6.65;4.78;;;;;;;16.39;75.63;100473.17;1752470;81;26588;-78
2021/08/04 02:37:10;;;;;;;5.17;3.60;;;;;;;16.34;76.07;100464.11;1680453;81;25908;-78
2021/08/04 02:39:38;;;;;;;5.25;3.85;;;;;;;16.28;76.15;100459.59;1657719;82;28280;-78
2021/08/04 02:42:06;;;;;;;6.28;4.22;;;;;;;16.29;76.34;100466.66;1757552;81;26630;-78
2021/08/04 02:44:33;;;;;;;7.78;4.35;;;;;;;16.28;76.36;100460.94;1734933;82;25789;-78
2021/08/04 02:47:01;;;;;;;8.40;4.33;;;;;;;16.29;76.58;100468.02;1695270;81;25804;-78
2021/08/04 02:49:28;;;;;;;4.97;3.62;;;;;;;16.22;76.72;100458.63;1716251;82;25332;-78
2021/08/04 02:51:56;;;;;;;8.03;4.12;;;;;;;16.19;76.87;100465.31;1730253;82;28134;-78
2021/08/04 02:54:23;;;;;;;6.40;4.12;;;;;;;16.19;76.95;100472.06;1771649;80;25933;-78
2021/08/04 02:56:50;;;;;;;6.62;4.20;;;;;;;16.15;76.87;100466.81;1718532;81;25848;-78
2021/08/04 02:59:17;;;;;;;4.70;4.17;;;;;;;16.21;77.25;100462.37;1714332;82;26061;-78
2021/08/04 03:01:44;;;;;;;6.75;4.75;;;;;;;16.23;77.31;100460.81;1754176;80;26027;-78
2021/08/04 03:04:11;;;;;;;4.50;3.80;;;;;;;16.24;77.62;100457.87;1751910;81;27557;-78
2021/08/04 03:06:38;;;;;;;7.58;4.28;;;;;;;16.20;77.56;100458.87;1695681;81;26575;-78
2021/08/04 03:09:06;;;;;;;6.00;4.33;;;;;;;16.17;77.70;100457.13;1720180;81;26138;-78
2021/08/04 03:11:33;;;;;;;7.55;4.50;;;;;;;16.14;77.76;100458.95;1767978;80;25819;-78
2021/08/04 03:14:00;;;;;;;9.00;4.25;;;;;;;16.11;77.87;100460.22;1708009;82;25911;-78
2021/08/04 03:16:27;;;;;;;8.10;4.53;;;;;;;16.12;78.02;100462.41;1701906;81;27572;-78
2021/08/04 03:18:54;;;;;;;7.10;4.60;;;;;;;16.12;77.96;100458.34;1682419;82;25848;-78
2021/08/04 03:21:21;;;;;;;6.00;4.50;;;;;;;16.13;77.99;100454.06;1739926;82;25954;-78
2021/08/04 03:23:48;;;;;;;7.87;4.67;;;;;;;16.16;78.14;100452.27;1762637;80;26399;-78
2021/08/04 03:26:15;;;;;;;6.55;4.80;;;;;;;16.19;78.20;100448.26;1700655;80;25820;-77
2021/08/04 03:28:42;;;;;;;7.33;4.80;;;;;;;16.18;78.15;100452.03;1659827;82;27507;-78
2021/08/04 03:31:09;;;;;;;5.72;4.37;;;;;;;16.20;78.08;100457.52;1731200;82;25836;-77
2021/08/04 03:33:37;;;;;;;6.53;5.30;;;;;;;16.20;78.30;100464.79;1745239;81;25756;-78
2021/08/04 03:36:04;;;;;;;10.68;5.85;;;;;;;16.23;78.39;100464.32;1695115;80;25930;-78
2021/08/04 03:38:31;;;;;;;7.30;4.85;;;;;;;16.25;78.29;100469.00;1658956;82;25822;-78
2021/08/04 03:40:59;;;;;;;8.70;4.60;;;;;;;16.25;78.32;100470.35;1721625;82;28496;-78
2021/08/04 03:43:26;;;;;;;7.42;5.97;;;;;;;16.29;78.41;100476.12;1743943;81;26656;-78
2021/08/04 03:45:53;;;;;;;7.53;4.83;;;;;;;16.33;78.46;100478.14;1690146;80;25295;-78
2021/08/04 03:48:21;;;;;;;7.17;5.03;;;;;;;16.38;78.43;100478.82;1719050;81;26287;-78
2021/08/04 03:50:47;;;;;;;12.33;5.70;;;;;;;16.42;78.37;100475.96;1752338;81;25803;-78
2021/08/04 03:53:14;;;;;;;7.97;5.35;;;;;;;16.45;78.47;100476.31;1738432;82;28200;-78
2021/08/04 03:55:41;;;;;;;8.68;5.03;;;;;;;16.46;78.54;100471.74;1685903;81;26438;-78
2021/08/04 03:58:08;;;;;;;7.72;4.85;;;;;;;16.47;78.49;100467.45;1690137;82;25945;-78
2021/08/04 04:00:36;;;;;;;8.13;5.08;;;;;;;16.50;78.40;100475.67;1726615;82;26645;-77
2021/08/04 04:03:03;;;;;;;12.33;5.80;;;;;;;16.52;78.47;100474.91;1749191;81;26676;-78
2021/08/04 04:05:30;;;;;;;6.12;4.92;;;;;;;16.53;78.31;100476.03;1683787;81;27579;-78
2021/08/04 04:07:57;;;;;;;7.47;4.83;;;;;;;16.53;78.26;100476.58;1709280;81;25919;-78
2021/08/04 04:10:24;;;;;;;12.68;4.78;;;;;;;16.49;78.42;100478.86;1689036;82;25963;-78
2021/08/04 04:12:51;;;;;;;5.37;4.40;;;;;;;16.46;78.46;100480.69;1748861;81;25774;-78
2021/08/04 04:15:18;;;;;;;7.22;4.80;;;;;;;16.45;78.54;100485.78;1715019;81;25847;-78
2021/08/04 04:17:45;;;;;;;5.33;4.80;;;;;;;16.45;78.80;100484.95;1678826;82;27563;-78
2021/08/04 04:20:13;;;;;;;6.37;5.08;;;;;;;16.45;78.69;100486.30;1717331;81;26285;-78
2021/08/04 04:22:44;;;;;;;9.58;4.72;;;;;;;16.50;78.61;100479.73;1759254;81;25316;-78
2021/08/04 04:25:13;;;;;;;;;;;;;;;16.53;78.56;100480.08;1715933;82;25832;-78
2021/08/04 04:27:41;;;;;;;8.33;4.80;;;;;;;16.57;78.62;100481.83;1721182;81;26516;-78
2021/08/04 04:30:11;;;;;;;11.05;5.10;;;;;;;16.57;78.48;100485.33;1716717;81;27597;-79
2021/08/04 04:32:38;;;;;;;5.83;4.70;;;;;;;16.58;78.62;100482.11;1760413;81;25877;-78
2021/08/04 04:35:05;;;;;;;8.60;4.75;;;;;;;16.58;78.75;100486.16;1692977;81;25906;-79
2021/08/04 04:37:33;;;;;;;9.00;5.28;;;;;;;16.60;78.96;100485.41;1719723;81;25899;-79
2021/08/04 04:40:00;;;;;;;6.90;5.05;;;;;;;16.66;79.04;100488.55;1688747;81;25952;-78
2021/08/04 04:42:27;;;;;;;8.05;5.60;;;;;;;16.67;78.89;100495.09;1754531;81;27567;-78
2021/08/04 04:44:54;;;;;;;8.95;5.37;;;;;;;16.70;78.92;100500.58;1688229;82;26237;-78
2021/08/04 04:47:21;;;;;;;8.90;4.55;;;;;;;16.71;78.73;100503.05;1718426;81;25894;-78
2021/08/04 04:49:48;;;;;;;13.55;5.42;;;;;;;16.76;78.71;100499.66;1719938;81;25841;-78
2021/08/04 04:52:15;;;;;;;6.17;4.70;;;;;;;16.81;78.85;100499.26;1735622;82;25845;-79
2021/08/04 04:54:42;;;;;;;7.47;5.37;;;;;;;16.81;78.90;100501.13;1693784;81;28113;-78
2021/08/04 04:57:09;;;;;;;9.33;5.50;;;;;;;16.82;79.14;100499.57;1710930;81;25804;-78
2021/08/04 04:59:36;;;;;;;12.33;5.75;;;;;;;16.87;79.23;100500.23;1688912;82;25900;-79
2021/08/04 05:02:03;;;;;;;9.50;5.83;;;;;;;16.88;78.90;100504.06;1720216;81;25822;-78
2021/08/04 05:04:30;;;;;;;8.03;5.20;;;;;;;16.89;78.87;100503.54;1691822;81;25876;-78
2021/08/04 05:06:57;;;;;;;6.78;6.08;;;;;;;16.89;78.89;100510.30;1690624;82;27473;-78
2021/08/04 05:09:24;;;;;;;7.83;5.90;;;;;;;16.96;79.07;100513.20;1717432;81;25759;-78
2021/08/04 05:11:51;;;;;;;9.30;7.03;;;;;;;17.08;79.48;100518.66;1759260;81;26442;-79
2021/08/04 05:14:18;;;;;;;9.58;6.53;;;;;;;17.12;79.46;100528.48;1688465;82;25874;-78
2021/08/04 05:16:45;;;;;;;10.30;6.30;;;;;;;17.14;79.65;100531.78;1709273;81;26489;-78
2021/08/04 05:19:12;;;;;;;9.75;7.03;;;;;;;17.19;79.91;100526.52;1699443;81;28076;-78
2021/08/04 05:21:39;;;;;;;9.80;7.15;;;;;;;17.22;79.78;100525.52;1732865;82;25904;-78
2021/08/04 05:24:06;;;;;;;12.98;7.12;;;;;;;17.24;79.82;100530.69;1694429;80;25792;-78
2021/08/04 05:26:33;;;;;;;9.90;7.03;;;;;;;17.30;80.21;100531.94;1713879;81;25921;-78
2021/08/04 05:29:01;;;;;;;7.87;6.92;;;;;;;17.32;80.09;100533.88;1718369;81;25848;-78
2021/08/04 05:31:28;;;;;;;9.63;7.15;;;;;;;17.35;79.80;100540.72;1762015;81;27454;-78
2021/08/04 05:33:55;;;;;;;9.35;6.92;;;;;;;17.39;80.16;100543.26;1699343;81;25724;-78
2021/08/04 05:36:22;;;;;;;7.95;6.62;;;;;;;17.42;79.99;100543.64;1742642;80;25854;-78
2021/08/04 05:38:49;;;;;;;11.93;6.95;;;;;;;17.44;79.89;100544.23;1718734;81;26403;-78
2021/08/04 05:41:16;;;;;;;13.65;6.90;;;;;;;17.43;79.85;100545.27;1735519;82;25836;-78
2021/08/04 05:43:43;;;;;;;12.05;7.80;;;;;;;17.41;79.77;100547.39;1721839;80;28169;-78
2021/08/04 05:46:10;;;;;;;8.20;6.83;;;;;;;17.40;79.71;100542.22;1724789;81;26026;-78
2021/08/04 05:48:37;;;;;;;12.10;7.47;;;;;;;17.40;79.68;100544.92;1695354;81;25816;-78
2021/08/04 05:51:04;;;;;;;8.40;6.65;;;;;;;17.39;79.59;100540.03;1776683;80;26451;-78
2021/08/04 05:53:31;;;;;;;13.93;6.80;;;;;;;17.39;79.75;100544.09;1690725;81;25893;-78
2021/08/04 05:55:58;;;;;;;10.93;7.40;;;;;;;17.39;79.60;100540.03;1668532;82;27437;-78
2021/08/04 05:58:25;;;;;;;10.72;7.15;;;;;;;17.43;79.96;100541.21;1728410;81;25935;-78
2021/08/04 06:00:53;;;;;;;12.07;8.13;;;;;;;17.44;79.57;100536.11;1765272;80;25818;-78
2021/08/04 06:03:20;;;;;;;12.55;7.70;;;;;;;17.46;79.62;100539.92;1707033;81;26547;-78
2021/08/04 06:05:47;;;;;;;12.25;7.80;;;;;;;17.45;79.56;100542.36;1706210;81;25833;-78
2021/08/04 06:08:14;;;;;;;12.68;7.20;;;;;;;17.50;79.67;100541.14;1732132;81;28316;-78
2021/08/04 06:10:41;;;;;;;8.53;7.60;;;;;;;17.54;79.66;100539.61;1766733;80;25796;-78
2021/08/04 06:13:08;;;;;;;9.43;8.03;;;;;;;17.57;79.46;100540.51;1654233;82;25841;-78
2021/08/04 06:15:36;;;;;;;9.25;8.33;;;;;;;17.59;79.24;100546.00;1717723;81;26620;-78
2021/08/04 06:18:03;;;;;;;11.68;7.35;;;;;;;17.62;79.35;100542.80;1719290;81;25816;-78
2021/08/04 06:20:30;;;;;;;11.00;7.83;;;;;;;17.63;79.24;100544.98;1737383;81;27495;-79
2021/08/04 06:22:57;;;;;;;8.13;7.00;;;;;;;17.68;79.43;100551.89;1697930;81;25831;-78
2021/08/04 06:25:24;;;;;;;14.73;8.75;;;;;;;17.70;79.29;100550.61;1708990;81;25890;-78
2021/08/04 06:27:52;;;;;;;11.53;8.28;;;;;;;17.74;79.32;100545.53;1705751;80;25828;-78
2021/08/04 06:30:20;;;;;;;14.15;7.72;;;;;;;17.76;79.38;100549.35;1754213;80;25720;-78
2021/08/04 06:32:47;;;;;;;13.13;7.83;;;;;;;17.75;79.11;100549.08;1686604;82;27362;-78
2021/08/04 06:35:14;;;;;;;10.23;7.55;;;;;;;17.75;78.97;100551.23;1770160;80;25824;-78
2021/08/04 06:37:41;;;;;;;10.48;7.10;;;;;;;17.75;79.05;100537.69;1718406;81;25849;-78
2021/08/04 06:40:10;;;;;;;12.28;8.68;;;;;;;17.75;79.07;100539.03;1755751;80;26680;-78
2021/08/04 06:42:37;;;;;;;9.93;8.30;;;;;;;17.80;79.21;100534.27;1710844;81;26157;-78
2021/08/04 06:45:05;;;;;;;9.38;8.13;;;;;;;17.83;78.92;100530.58;1726326;81;27554;-79
2021/08/04 06:47:32;;;;;;;14.38;7.80;;;;;;;17.85;78.99;100528.46;1727504;81;25348;-78
2021/08/04 06:49:59;;;;;;;11.12;7.60;;;;;;;17.91;78.97;100536.17;1737574;81;26251;-78
2021/08/04 06:52:26;;;;;;;12.03;8.68;;;;;;;17.94;78.88;100537.06;1692214;80;25859;-78
2021/08/04 06:54:53;;;;;;;11.95;7.78;;;;;;;17.98;78.76;100538.23;1692825;81;25901;-78
2021/08/04 06:57:20;;;;;;;10.38;7.70;;;;;;;18.00;78.57;100543.72;1712015;82;27560;-78
2021/08/04 06:59:47;;;;;;;12.37;8.33;;;;;;;18.02;78.74;100543.47;1756540;80;26032;-78
2021/08/04 07:02:14;;;;;;;14.63;7.90;;;;;;;18.04;79.13;100543.53;1694601;81;25821;-78
2021/08/04 07:04:41;;;;;;;11.55;8.23;;;;;;;18.09;79.12;100545.54;1689800;82;26306;-78
2021/08/04 07:07:08;;;;;;;9.90;8.63;;;;;;;18.13;78.90;100541.29;1754713;81;26393;-78
2021/08/04 07:09:35;;;;;;;12.03;8.55;;;;;;;18.16;78.64;100542.98;1735337;82;28122;-78
2021/08/04 07:12:05;;;;;;;9.85;7.97;;;;;;;18.20;78.74;100540.09;1668734;80;25768;-79
2021/08/04 07:14:32;;;;;;;9.88;7.58;;;;;;;18.20;78.64;100541.97;1711786;81;25895;-78
2021/08/04 07:16:59;;;;;;;13.32;9.55;;;;;;;18.19;78.67;100544.41;1724769;81;26099;-78
2021/08/04 07:19:26;;;;;;;13.43;10.50;;;;;;;18.16;78.68;100544.34;1715986;82;26129;-79
2021/08/04 07:21:53;;;;;;;12.60;7.72;;;;;;;18.15;78.67;100543.23;1698874;81;28313;-79
2021/08/04 07:24:20;;;;;;;10.75;7.45;;;;;;;18.12;79.17;100538.27;1691009;82;25941;-78
2021/08/04 07:26:47;;;;;;;10.88;7.70;;;;;;;18.06;79.23;100537.34;1716854;80;26457;-79
2021/08/04 07:29:14;;;;;;;9.15;8.18;;;;;;;18.01;79.49;100535.03;1756281;81;26585;-78
2021/08/04 07:31:42;;;;;;;9.88;8.23;;;;;;;17.98;79.78;100537.71;1689936;82;25775;-79
2021/08/04 07:34:11;;;;;;;11.90;8.00;;;;;;;17.96;79.83;100540.36;1731695;81;27470;-78
2021/08/04 07:36:38;;;;;;;8.73;7.17;;;;;;;17.92;80.12;100542.70;1772410;80;25779;-78
2021/08/04 07:39:05;;;;;;;9.55;7.85;;;;;;;17.91;79.96;100546.48;1659126;82;25791;-78
2021/08/04 07:41:32;;;;;;;10.90;7.60;;;;;;;17.93;80.39;100548.95;1727599;81;25875;-78
2021/08/04 07:43:59;;;;;;;9.20;7.33;;;;;;;17.99;80.60;100562.38;1686930;82;26574;-78
2021/08/04 07:46:26;;;;;;;11.20;8.55;;;;;;;18.05;80.49;100561.44;1737002;81;27657;-78
2021/08/04 07:48:53;;;;;;;11.55;8.13;;;;;;;18.08;80.76;100563.69;1703149;81;25936;-78
2021/08/04 07:51:21;;;;;;;11.12;8.93;;;;;;;18.15;80.98;100562.21;1720720;81;37198;-78
2021/08/04 07:53:48;;;;;;;10.43;9.38;;;;;;;18.21;80.99;100564.80;1749722;81;26323;-78
2021/08/04 07:56:19;;;;;;;14.07;9.55;;;;;;;18.31;81.12;100568.25;1667107;82;26500;-78
2021/08/04 07:58:44;;;;;;;11.55;9.60;;;;;;;18.39;80.78;100563.84;1716794;81;28164;-78
2021/08/04 08:01:11;;;;;;;14.45;11.28;;;;;;;18.41;80.46;100567.94;1761108;81;25727;-78
2021/08/04 08:03:38;;;;;;;12.05;10.78;;;;;;;18.44;80.24;100568.03;1755960;81;26513;-78
2021/08/04 08:06:05;;;;;;;13.03;11.33;;;;;;;18.45;79.94;100567.78;1675003;81;25850;-78
2021/08/04 08:08:32;;;;;;;13.70;11.00;;;;;;;18.45;80.03;100565.63;1699055;81;26491;-78
2021/08/04 08:11:01;;;;;;;11.43;9.80;;;;;;;18.50;80.33;100568.42;1750938;81;27603;-78
2021/08/04 08:13:28;;;;;;;10.55;9.45;;;;;;;18.57;80.70;100575.91;1760636;81;25818;-78
2021/08/04 08:15:55;;;;;;;15.80;10.58;;;;;;;18.64;80.60;100579.84;1698316;81;26619;-78
2021/08/04 08:18:22;;;;;;;18.30;11.60;;;;;;;18.68;80.46;100573.70;1679285;81;26397;-79
2021/08/04 08:20:49;;;;;;;15.05;11.25;;;;;;;18.72;80.48;100577.59;1756033;80;25928;-79
2021/08/04 08:23:16;;;;;;;14.53;11.65;;;;;;;18.77;80.48;100572.80;1751256;81;28234;-78
2021/08/04 08:25:43;;;;;;;11.55;10.35;;;;;;;18.83;80.69;100576.73;1695703;81;25347;-78
2021/08/04 08:28:10;;;;;;;11.63;9.38;;;;;;;18.89;80.73;100577.64;1676027;81;25925;-78
2021/08/04 08:30:38;;;;;;;9.48;8.53;;;;;;;18.92;80.42;100565.79;1740019;81;25877;-78
2021/08/04 08:33:05;;;;;;;10.70;8.98;;;;;;;18.93;80.35;100574.20;1754006;81;25660;-79
2021/08/04 08:35:32;;;;;;;10.60;9.23;;;;;;;18.97;80.30;100574.54;1712607;82;27537;-79
2021/08/04 08:38:00;;;;;;;10.70;9.60;;;;;;;18.99;80.29;100573.80;1669920;81;26657;-79
2021/08/04 08:40:27;;;;;;;10.13;9.10;;;;;;;19.02;80.53;100579.55;1746483;81;25825;-79
2021/08/04 08:42:55;;;;;;;11.75;8.35;;;;;;;19.06;80.35;100583.43;1758232;81;26595;-79
2021/08/04 08:45:23;;;;;;;9.33;8.30;;;;;;;19.06;79.98;100578.52;1681152;81;26572;-78
2021/08/04 08:47:50;;;;;;;9.13;7.05;;;;;;;19.01;79.97;100587.95;1670229;81;28070;-78
2021/08/04 08:50:25;;;;;;;8.65;6.90;;;;;;;18.98;79.89;100584.34;1737232;81;25970;-78
2021/08/04 08:52:49;;;;;;;7.72;6.60;;;;;;;18.97;79.86;100586.75;1716113;81;25939;-79
2021/08/04 08:55:16;;;;;;;8.05;6.62;;;;;;;18.98;79.88;100585.17;1679167;82;25896;-78
2021/08/04 08:57:43;;;;;;;9.73;7.95;;;;;;;18.97;79.69;100588.94;1725779;81;25970;-78
2021/08/04 09:00:12;;;;;;;8.08;6.90;;;;;;;18.98;80.07;100579.75;1760544;81;27590;-78
2021/08/04 09:02:42;;;;;;;9.30;7.00;;;;;;;18.99;80.05;100586.01;1713078;82;26181;-78
2021/08/04 09:05:13;;;;;;;8.48;7.67;;;;;;;18.98;80.13;100584.34;1695649;81;26614;-78
2021/08/04 09:07:43;;;;;;;6.75;6.12;;;;;;;18.95;80.31;100582.94;1712786;82;25874;-78
2021/08/04 09:10:30;;;;;;;6.15;5.55;;;;;;;18.91;80.09;100582.30;1755115;80;26639;-78
2021/08/04 09:13:00;;;;;;;8.73;6.00;;;;;;;18.86;79.73;100587.64;1728198;82;27096;-78
2021/08/04 09:15:40;;;;;;;6.77;5.73;;;;;;;18.80;79.83;100579.91;1700256;81;26479;-79
2021/08/04 09:18:15;;;;;;;8.38;5.67;;;;;;;18.79;79.93;100578.81;1662691;82;26464;-79
2021/08/04 09:20:54;;;;;;;7.58;6.12;;;;;;;18.80;80.10;100577.72;1703712;82;26139;-78
2021/08/04 09:23:25;;;;;;;6.53;5.90;;;;;;;18.83;80.28;100579.97;1751314;81;25830;-78
2021/08/04 09:26:18;;;;;;;7.60;5.17;;;;;;;18.85;80.20;100575.95;1698232;82;27519;-78
2021/08/04 09:29:06;;;;;;;4.55;4.08;;;;;;;18.84;80.01;100586.50;1719185;81;26006;-78
2021/08/04 09:31:46;;;;;;;5.42;3.55;;;;;;;18.80;79.98;100577.20;1754561;81;25809;-78
2021/08/04 09:34:36;;;;;;;3.65;3.30;;;;;;;18.79;79.75;100574.73;1737755;81;26536;-78
2021/08/04 09:37:17;;;;;;;3.30;3.02;;;;;;;18.75;79.58;100575.77;1689645;81;25770;-78
2021/08/04 09:39:47;;;;;;;3.37;3.00;;;;;;;18.74;79.43;100578.69;1732827;81;27167;-78
2021/08/04 09:42:14;;;;;;;3.17;2.80;;;;;;;18.72;79.15;100579.47;1701303;82;25811;-78
2021/08/04 09:44:59;;;;;;;2.90;2.67;;;;;;;18.68;78.80;100572.87;1763706;80;25818;-78
2021/08/04 09:47:27;;;;;;;4.80;3.30;;;;;;;18.68;78.87;100576.95;1708420;81;25919;-78
2021/08/04 09:50:00;;;;;;;3.37;3.08;;;;;;;18.65;78.99;100587.73;1681390;81;25537;-79
2021/08/04 09:52:31;;;;;;;3.10;2.83;;;;;;;18.62;78.84;100592.83;1736879;82;28204;-79
2021/08/04 09:55:17;;;;;;;3.47;3.17;;;;;;;18.59;78.91;100594.66;1752001;81;25822;-78
2021/08/04 09:57:51;;;;;;;4.20;3.52;;;;;;;18.54;79.25;100592.66;1733321;81;25306;-78
2021/08/04 10:00:20;;;;;;;4.80;3.83;;;;;;;18.57;80.03;100597.61;1731765;82;26065;-78
2021/08/04 10:02:47;;;;;;;5.25;3.72;;;;;;;18.63;80.40;100595.30;1753847;81;25751;-79
2021/08/04 10:05:21;;;;;;;4.28;3.80;;;;;;;18.67;80.23;100603.80;1739094;81;27541;-78
2021/08/04 10:08:10;;;;;;;4.30;3.77;;;;;;;18.67;80.27;100603.25;1692631;82;25863;-78
2021/08/04 10:10:49;;;;;;;4.60;3.47;;;;;;;18.70;80.37;100593.81;1674290;81;25801;-78
2021/08/04 10:13:18;;;;;;;3.20;3.00;;;;;;;18.74;80.45;100596.33;1719737;81;25969;-78
2021/08/04 10:15:50;;;;;;;3.47;3.17;;;;;;;18.76;80.32;100599.63;1716208;80;25723;-78
2021/08/04 10:18:23;;;;;;;3.47;2.58;;;;;;;18.74;80.44;100605.30;1725268;82;27490;-78
2021/08/04 10:21:00;;;;;;;3.42;2.92;;;;;;;18.75;80.35;100598.83;1682662;82;25616;-78
2021/08/04 10:23:30;;;;;;;4.70;3.77;;;;;;;18.74;79.83;100596.33;1729178;82;25804;-78
2021/08/04 10:25:59;;;;;;;4.78;3.85;;;;;;;18.70;79.72;100593.28;1776728;80;26454;-78
2021/08/04 10:28:29;;;;;;;4.12;3.72;;;;;;;18.66;79.96;100580.44;1729433;81;25948;-78
2021/08/04 10:30:58;;;;;;;5.40;4.58;;;;;;;18.75;80.25;100590.69;1667642;82;27416;-78
2021/08/04 10:33:25;;;;;;;7.40;4.30;;;;;;;18.78;80.07;100592.06;1776056;80;26563;-78
2021/08/04 10:36:00;;;;;;;5.55;4.75;;;;;;;18.78;80.28;100587.47;1775886;80;25634;-78
2021/08/04 10:38:27;;;;;;;5.17;4.58;;;;;;;18.83;80.22;100588.11;1739205;80;25809;-78
2021/08/04 10:41:22;;;;;;;6.60;5.15;;;;;;;18.86;80.26;100587.09;1713827;80;25892;-78
2021/08/04 10:43:57;;;;;;;5.25;4.75;;;;;;;18.91;80.20;100587.73;1751603;81;27448;-78
2021/08/04 10:46:34;;;;;;;6.20;5.25;;;;;;;18.97;80.58;100591.66;1750623;81;26663;-78
2021/08/04 10:49:12;;;;;;;8.30;6.08;;;;;;;19.03;80.90;100593.95;1739468;82;25937;-78
2021/08/04 10:51:47;;;;;;;6.08;5.47;;;;;;;19.09;80.81;100590.27;1692102;80;26604;-78
2021/08/04 10:54:19;;;;;;;6.65;5.78;;;;;;;19.11;80.54;100594.39;1751510;81;25716;-78
2021/08/04 10:56:52;;;;;;;6.70;5.72;;;;;;;19.15;80.87;100590.66;1749350;80;27459;-78
2021/08/04 10:59:27;;;;;;;7.53;6.00;;;;;;;19.22;81.06;100590.78;1725859;81;26286;-78
2021/08/04 11:02:04;;;;;;;6.17;5.55;;;;;;;19.27;81.16;100591.97;1713816;82;25865;-78
2021/08/04 11:04:42;;;;;;;6.42;5.78;;;;;;;19.29;81.36;100593.34;1753153;80;26191;-78
2021/08/04 11:07:13;;;;;;;7.95;5.58;;;;;;;19.25;80.84;100590.30;1757361;80;25819;-78
2021/08/04 11:09:48;;;;;;;7.65;4.92;;;;;;;19.25;81.41;100595.73;1719641;81;26992;-78
2021/08/04 11:12:24;;;;;;;7.97;5.97;;;;;;;19.28;81.21;100595.79;1686590;82;25929;-78
2021/08/04 11:14:56;;;;;;;8.45;6.67;;;;;;;19.29;81.41;100593.34;1695978;81;25808;-78
2021/08/04 11:17:29;;;;;;;7.55;6.58;;;;;;;19.30;81.28;100590.94;1761705;81;26388;-78
2021/08/04 11:20:10;;;;;;;6.97;6.28;;;;;;;19.31;81.30;100590.41;1729300;81;25914;-79
2021/08/04 11:22:48;;;;;;;7.30;6.12;;;;;;;19.33;81.21;100588.27;1712179;82;27446;-78
2021/08/04 11:25:32;;;;;;;7.03;6.35;;;;;;;19.34;81.18;100591.27;1693054;81;26387;-78
2021/08/04 11:28:03;;;;;;;8.93;6.95;;;;;;;19.35;81.24;100591.60;1753417;81;26508;-78
2021/08/04 11:30:40;;;;;;;8.05;6.42;;;;;;;19.35;81.36;100585.64;1708607;82;26744;-78
2021/08/04 11:33:30;;;;;;;7.33;6.72;;;;;;;19.39;81.39;100585.44;1703143;81;25739;-77
2021/08/04 11:36:13;;;;;;;7.55;6.78;;;;;;;19.42;81.25;100587.64;1702405;81;27514;-78
2021/08/04 11:39:01;;;;;;;5.75;4.92;;;;;;;19.42;80.92;100578.70;1738079;82;26643;-78